sensor_id;sensor_type;location;lat;lon;timestamp;temperature;humidity
7254;DHT22;4060;49.186;9.226;2024-03-23T00:54:02;17.90;53.30
7254;DHT22;4060;49.186;9.226;2024-03-23T00:56:30;17.90;53.30
7254;DHT22;4060;49.186;9.226;2024-03-23T00:59:00;17.90;53.30
7254;DHT22;4060;49.186;9.226;2024-03-23T01:01:28;17.90;53.40
7254;DHT22;4060;49.186;9.226;2024-03-23T01:03:58;17.90;53.40
7254;DHT22;4060;49.186;9.226;2024-03-23T01:06:29;17.80;53.40
7254;DHT22;4060;49.186;9.226;2024-03-23T01:08:58;17.80;53.40
7254;DHT22;4060;49.186;9.226;2024-03-23T01:11:28;17.80;53.40
7254;DHT22;4060;49.186;9.226;2024-03-23T01:13:57;17.80;53.50
7254;DHT22;4060;49.186;9.226;2024-03-23T01:16:25;17.80;53.50
7254;DHT22;4060;49.186;9.226;2024-03-23T01:18:55;17.70;53.50
7254;DHT22;4060;49.186;9.226;2024-03-23T01:21:23;17.80;53.60
7254;DHT22;4060;49.186;9.226;2024-03-23T01:23:55;17.70;53.50
7254;DHT22;4060;49.186;9.226;2024-03-23T01:26:24;17.70;53.50
7254;DHT22;4060;49.186;9.226;2024-03-23T01:28:53;17.70;53.60
7254;DHT22;4060;49.186;9.226;2024-03-23T01:31:21;17.70;53.60
7254;DHT22;4060;49.186;9.226;2024-03-23T01:33:52;17.60;53.60
7254;DHT22;4060;49.186;9.226;2024-03-23T01:36:20;17.70;53.70
7254;DHT22;4060;49.186;9.226;2024-03-23T01:38:54;17.60;53.70
7254;DHT22;4060;49.186;9.226;2024-03-23T01:41:24;17.60;53.70
7254;DHT22;4060;49.186;9.226;2024-03-23T01:43:55;17.60;53.80
7254;DHT22;4060;49.186;9.226;2024-03-23T01:46:24;17.50;53.70
7254;DHT22;4060;49.186;9.226;2024-03-23T01:48:54;17.60;53.80
7254;DHT22;4060;49.186;9.226;2024-03-23T01:51:23;17.50;53.80
7254;DHT22;4060;49.186;9.226;2024-03-23T01:53:56;17.50;53.80
7254;DHT22;4060;49.186;9.226;2024-03-23T01:56:25;17.50;53.80
7254;DHT22;4060;49.186;9.226;2024-03-23T01:58:55;17.50;53.90
7254;DHT22;4060;49.186;9.226;2024-03-23T02:01:23;17.50;53.80
7254;DHT22;4060;49.186;9.226;2024-03-23T02:03:53;17.40;53.80
7254;DHT22;4060;49.186;9.226;2024-03-23T02:06:22;17.40;53.90
7254;DHT22;4060;49.186;9.226;2024-03-23T02:08:55;17.40;53.90
7254;DHT22;4060;49.186;9.226;2024-03-23T02:11:24;17.40;53.90
7254;DHT22;4060;49.186;9.226;2024-03-23T02:13:53;17.40;53.90
7254;DHT22;4060;49.186;9.226;2024-03-23T02:16:21;17.40;54.00
7254;DHT22;4060;49.186;9.226;2024-03-23T02:18:50;17.30;53.90
7254;DHT22;4060;49.186;9.226;2024-03-23T02:21:18;17.30;54.00
7254;DHT22;4060;49.186;9.226;2024-03-23T02:23:50;17.30;54.00
7254;DHT22;4060;49.186;9.226;2024-03-23T02:26:18;17.30;54.00
7254;DHT22;4060;49.186;9.226;2024-03-23T02:28:48;17.20;53.90
7254;DHT22;4060;49.186;9.226;2024-03-23T02:31:17;17.30;54.50
7254;DHT22;4060;49.186;9.226;2024-03-23T02:33:45;17.20;53.90
7254;DHT22;4060;49.186;9.226;2024-03-23T02:36:14;17.20;53.80
7254;DHT22;4060;49.186;9.226;2024-03-23T02:38:42;17.20;53.80
7254;DHT22;4060;49.186;9.226;2024-03-23T02:41:14;17.20;53.90
7254;DHT22;4060;49.186;9.226;2024-03-23T02:43:41;17.10;53.80
7254;DHT22;4060;49.186;9.226;2024-03-23T02:46:11;17.10;53.80
7254;DHT22;4060;49.186;9.226;2024-03-23T02:48:39;17.10;53.90
7254;DHT22;4060;49.186;9.226;2024-03-23T02:51:08;17.10;53.90
7254;DHT22;4060;49.186;9.226;2024-03-23T02:53:37;17.00;53.80
7254;DHT22;4060;49.186;9.226;2024-03-23T02:56:07;17.10;53.90
7254;DHT22;4060;49.186;9.226;2024-03-23T02:58:37;17.00;53.80
7254;DHT22;4060;49.186;9.226;2024-03-23T03:01:06;17.00;53.90
7254;DHT22;4060;49.186;9.226;2024-03-23T03:03:35;17.00;53.90
7254;DHT22;4060;49.186;9.226;2024-03-23T03:06:05;17.00;53.90
7254;DHT22;4060;49.186;9.226;2024-03-23T03:08:36;17.00;53.90
7254;DHT22;4060;49.186;9.226;2024-03-23T03:11:06;16.90;53.90
7254;DHT22;4060;49.186;9.226;2024-03-23T03:13:39;16.90;54.00
7254;DHT22;4060;49.186;9.226;2024-03-23T03:16:09;16.90;54.00
7254;DHT22;4060;49.186;9.226;2024-03-23T03:18:39;16.90;54.00
7254;DHT22;4060;49.186;9.226;2024-03-23T03:21:08;16.90;54.10
7254;DHT22;4060;49.186;9.226;2024-03-23T03:23:38;16.90;54.10
7254;DHT22;4060;49.186;9.226;2024-03-23T03:26:08;16.80;54.00
7254;DHT22;4060;49.186;9.226;2024-03-23T03:28:38;16.80;54.00
7254;DHT22;4060;49.186;9.226;2024-03-23T03:31:09;16.80;54.00
7254;DHT22;4060;49.186;9.226;2024-03-23T03:33:37;16.80;54.10
7254;DHT22;4060;49.186;9.226;2024-03-23T03:36:07;16.80;54.10
7254;DHT22;4060;49.186;9.226;2024-03-23T03:38:36;16.80;54.20
7254;DHT22;4060;49.186;9.226;2024-03-23T03:41:06;16.70;54.10
7254;DHT22;4060;49.186;9.226;2024-03-23T03:43:35;16.70;54.10
7254;DHT22;4060;49.186;9.226;2024-03-23T03:46:08;16.70;54.20
7254;DHT22;4060;49.186;9.226;2024-03-23T03:48:37;16.70;54.20
7254;DHT22;4060;49.186;9.226;2024-03-23T03:51:07;16.70;54.30
7254;DHT22;4060;49.186;9.226;2024-03-23T03:53:35;16.70;54.40
7254;DHT22;4060;49.186;9.226;2024-03-23T03:56:05;16.70;55.00
7254;DHT22;4060;49.186;9.226;2024-03-23T03:58:33;16.60;54.50
7254;DHT22;4060;49.186;9.226;2024-03-23T04:01:05;16.60;54.60
7254;DHT22;4060;49.186;9.226;2024-03-23T04:03:33;16.60;54.70
7254;DHT22;4060;49.186;9.226;2024-03-23T04:06:03;16.60;54.80
7254;DHT22;4060;49.186;9.226;2024-03-23T04:08:31;16.60;54.80
7254;DHT22;4060;49.186;9.226;2024-03-23T04:11:01;16.60;54.90
7254;DHT22;4060;49.186;9.226;2024-03-23T04:13:29;16.60;55.00
7254;DHT22;4060;49.186;9.226;2024-03-23T04:15:59;16.60;55.10
7254;DHT22;4060;49.186;9.226;2024-03-23T04:18:29;16.50;55.00
7254;DHT22;4060;49.186;9.226;2024-03-23T04:20:58;16.50;55.10
7254;DHT22;4060;49.186;9.226;2024-03-23T04:23:27;16.50;55.20
7254;DHT22;4060;49.186;9.226;2024-03-23T04:26:02;16.50;55.30
7254;DHT22;4060;49.186;9.226;2024-03-23T04:28:31;16.50;55.30
7254;DHT22;4060;49.186;9.226;2024-03-23T04:31:13;16.50;55.40
7254;DHT22;4060;49.186;9.226;2024-03-23T04:33:44;16.50;55.60
7254;DHT22;4060;49.186;9.226;2024-03-23T04:36:14;16.50;55.70
7254;DHT22;4060;49.186;9.226;2024-03-23T04:38:42;16.50;55.80
7254;DHT22;4060;49.186;9.226;2024-03-23T04:41:13;16.50;55.80
7254;DHT22;4060;49.186;9.226;2024-03-23T04:43:42;16.40;55.80
7254;DHT22;4060;49.186;9.226;2024-03-23T04:46:12;16.40;55.90
7254;DHT22;4060;49.186;9.226;2024-03-23T04:48:44;16.40;56.00
7254;DHT22;4060;49.186;9.226;2024-03-23T04:51:22;16.40;56.10
7254;DHT22;4060;49.186;9.226;2024-03-23T04:53:52;16.40;56.20
7254;DHT22;4060;49.186;9.226;2024-03-23T04:56:21;16.40;56.30
7254;DHT22;4060;49.186;9.226;2024-03-23T04:58:49;16.40;56.40
7254;DHT22;4060;49.186;9.226;2024-03-23T05:01:19;16.30;56.40
7254;DHT22;4060;49.186;9.226;2024-03-23T05:03:49;16.40;56.50
7254;DHT22;4060;49.186;9.226;2024-03-23T05:06:20;16.40;57.20
7254;DHT22;4060;49.186;9.226;2024-03-23T05:08:48;16.30;56.60
7254;DHT22;4060;49.186;9.226;2024-03-23T05:11:18;16.40;56.80
7254;DHT22;4060;49.186;9.226;2024-03-23T05:13:48;16.30;56.80
7254;DHT22;4060;49.186;9.226;2024-03-23T05:16:18;16.30;56.90
7254;DHT22;4060;49.186;9.226;2024-03-23T05:18:46;16.30;57.00
7254;DHT22;4060;49.186;9.226;2024-03-23T05:21:17;16.30;57.10
7254;DHT22;4060;49.186;9.226;2024-03-23T05:23:45;16.30;57.20
7254;DHT22;4060;49.186;9.226;2024-03-23T05:26:16;16.30;57.30
7254;DHT22;4060;49.186;9.226;2024-03-23T05:28:45;16.30;57.30
7254;DHT22;4060;49.186;9.226;2024-03-23T05:31:23;16.30;57.40
7254;DHT22;4060;49.186;9.226;2024-03-23T05:33:52;16.20;57.40
7254;DHT22;4060;49.186;9.226;2024-03-23T05:36:23;16.20;57.50
7254;DHT22;4060;49.186;9.226;2024-03-23T05:38:52;16.20;57.50
7254;DHT22;4060;49.186;9.226;2024-03-23T05:41:21;16.20;57.60
7254;DHT22;4060;49.186;9.226;2024-03-23T05:43:51;16.20;57.60
7254;DHT22;4060;49.186;9.226;2024-03-23T05:46:21;16.20;57.70
7254;DHT22;4060;49.186;9.226;2024-03-23T05:48:51;16.20;57.70
7254;DHT22;4060;49.186;9.226;2024-03-23T05:51:23;16.20;57.80
7254;DHT22;4060;49.186;9.226;2024-03-23T05:53:53;16.20;57.80
7254;DHT22;4060;49.186;9.226;2024-03-23T05:56:23;16.10;57.60
7254;DHT22;4060;49.186;9.226;2024-03-23T05:58:53;16.10;57.70
7254;DHT22;4060;49.186;9.226;2024-03-23T06:01:23;16.10;57.80
7254;DHT22;4060;49.186;9.226;2024-03-23T06:03:52;16.10;57.80
7254;DHT22;4060;49.186;9.226;2024-03-23T06:06:31;16.10;57.90
7254;DHT22;4060;49.186;9.226;2024-03-23T06:09:00;16.10;58.00
7254;DHT22;4060;49.186;9.226;2024-03-23T06:11:31;16.10;58.00
7254;DHT22;4060;49.186;9.226;2024-03-23T06:13:59;16.10;58.00
7254;DHT22;4060;49.186;9.226;2024-03-23T06:16:28;16.00;57.90
7254;DHT22;4060;49.186;9.226;2024-03-23T06:18:58;16.00;58.00
7254;DHT22;4060;49.186;9.226;2024-03-23T06:21:30;16.00;58.00
7254;DHT22;4060;49.186;9.226;2024-03-23T06:23:58;16.00;58.00
7254;DHT22;4060;49.186;9.226;2024-03-23T06:26:29;16.00;58.00
7254;DHT22;4060;49.186;9.226;2024-03-23T06:28:57;16.00;58.10
7254;DHT22;4060;49.186;9.226;2024-03-23T06:31:28;16.00;58.10
7254;DHT22;4060;49.186;9.226;2024-03-23T06:33:56;16.00;58.10
7254;DHT22;4060;49.186;9.226;2024-03-23T06:36:27;16.00;58.10
7254;DHT22;4060;49.186;9.226;2024-03-23T06:38:59;15.90;58.10
7254;DHT22;4060;49.186;9.226;2024-03-23T06:41:29;15.90;58.10
7254;DHT22;4060;49.186;9.226;2024-03-23T06:43:58;15.90;58.10
7254;DHT22;4060;49.186;9.226;2024-03-23T06:46:27;15.90;58.10
7254;DHT22;4060;49.186;9.226;2024-03-23T06:48:56;15.90;58.10
7254;DHT22;4060;49.186;9.226;2024-03-23T06:51:25;15.90;58.10
7254;DHT22;4060;49.186;9.226;2024-03-23T06:53:54;15.80;58.00
7254;DHT22;4060;49.186;9.226;2024-03-23T06:56:26;15.80;58.00
7254;DHT22;4060;49.186;9.226;2024-03-23T06:58:55;15.80;58.00
7254;DHT22;4060;49.186;9.226;2024-03-23T07:01:25;15.80;58.00
7254;DHT22;4060;49.186;9.226;2024-03-23T07:03:53;15.80;58.00
7254;DHT22;4060;49.186;9.226;2024-03-23T07:06:23;15.70;57.90
7254;DHT22;4060;49.186;9.226;2024-03-23T07:08:52;15.70;57.80
7254;DHT22;4060;49.186;9.226;2024-03-23T07:11:25;15.70;57.80
7254;DHT22;4060;49.186;9.226;2024-03-23T07:13:54;15.70;57.80
7254;DHT22;4060;49.186;9.226;2024-03-23T07:16:24;15.70;57.80
7254;DHT22;4060;49.186;9.226;2024-03-23T07:18:54;15.60;57.70
7254;DHT22;4060;49.186;9.226;2024-03-23T07:21:24;15.70;57.80
7254;DHT22;4060;49.186;9.226;2024-03-23T07:23:53;15.60;57.70
7254;DHT22;4060;49.186;9.226;2024-03-23T07:26:25;15.60;57.70
7254;DHT22;4060;49.186;9.226;2024-03-23T07:28:53;15.60;57.70
7254;DHT22;4060;49.186;9.226;2024-03-23T07:31:23;15.60;57.70
7254;DHT22;4060;49.186;9.226;2024-03-23T07:33:52;15.60;57.70
7254;DHT22;4060;49.186;9.226;2024-03-23T07:36:23;15.60;57.70
7254;DHT22;4060;49.186;9.226;2024-03-23T07:38:52;15.50;57.60
7254;DHT22;4060;49.186;9.226;2024-03-23T07:41:25;15.50;57.50
7254;DHT22;4060;49.186;9.226;2024-03-23T07:43:54;15.50;57.60
7254;DHT22;4060;49.186;9.226;2024-03-23T07:46:24;15.50;57.60
7254;DHT22;4060;49.186;9.226;2024-03-23T07:48:53;15.50;58.10
7254;DHT22;4060;49.186;9.226;2024-03-23T07:51:23;15.50;57.60
7254;DHT22;4060;49.186;9.226;2024-03-23T07:53:52;15.50;57.50
7254;DHT22;4060;49.186;9.226;2024-03-23T07:56:21;15.40;57.50
7254;DHT22;4060;49.186;9.226;2024-03-23T07:58:52;15.40;57.40
7254;DHT22;4060;49.186;9.226;2024-03-23T08:01:22;15.40;57.40
7254;DHT22;4060;49.186;9.226;2024-03-23T08:03:51;15.40;57.50
7254;DHT22;4060;49.186;9.226;2024-03-23T08:06:22;15.40;57.50
7254;DHT22;4060;49.186;9.226;2024-03-23T08:08:54;15.30;57.40
7254;DHT22;4060;49.186;9.226;2024-03-23T08:11:29;15.30;57.40
7254;DHT22;4060;49.186;9.226;2024-03-23T08:13:59;15.30;57.40
7254;DHT22;4060;49.186;9.226;2024-03-23T08:16:29;15.30;57.40
7254;DHT22;4060;49.186;9.226;2024-03-23T08:18:57;15.30;57.40
7254;DHT22;4060;49.186;9.226;2024-03-23T08:21:28;15.30;57.40
7254;DHT22;4060;49.186;9.226;2024-03-23T08:23:56;15.30;57.40
7254;DHT22;4060;49.186;9.226;2024-03-23T08:26:27;15.30;57.40
7254;DHT22;4060;49.186;9.226;2024-03-23T08:28:57;15.30;57.40
7254;DHT22;4060;49.186;9.226;2024-03-23T08:31:28;15.20;57.20
7254;DHT22;4060;49.186;9.226;2024-03-23T08:33:57;15.20;57.20
7254;DHT22;4060;49.186;9.226;2024-03-23T08:36:27;15.20;57.20
7254;DHT22;4060;49.186;9.226;2024-03-23T08:38:55;15.20;57.20
7254;DHT22;4060;49.186;9.226;2024-03-23T08:41:26;15.20;57.10
7254;DHT22;4060;49.186;9.226;2024-03-23T08:43:54;15.20;57.10
7254;DHT22;4060;49.186;9.226;2024-03-23T08:46:27;15.20;57.10
7254;DHT22;4060;49.186;9.226;2024-03-23T08:48:55;15.20;57.00
7254;DHT22;4060;49.186;9.226;2024-03-23T08:51:25;15.20;57.00
7254;DHT22;4060;49.186;9.226;2024-03-23T08:53:53;15.20;56.90
7254;DHT22;4060;49.186;9.226;2024-03-23T08:56:24;15.10;56.80
7254;DHT22;4060;49.186;9.226;2024-03-23T08:58:58;15.10;56.80
7254;DHT22;4060;49.186;9.226;2024-03-23T09:01:30;15.10;56.70
7254;DHT22;4060;49.186;9.226;2024-03-23T09:03:59;15.10;56.70
7254;DHT22;4060;49.186;9.226;2024-03-23T09:06:34;15.10;56.70
7254;DHT22;4060;49.186;9.226;2024-03-23T09:09:03;15.10;56.70
7254;DHT22;4060;49.186;9.226;2024-03-23T09:11:33;15.10;56.60
7254;DHT22;4060;49.186;9.226;2024-03-23T09:14:01;15.10;56.60
7254;DHT22;4060;49.186;9.226;2024-03-23T09:16:33;15.00;56.50
7254;DHT22;4060;49.186;9.226;2024-03-23T09:19:01;15.00;56.50
7254;DHT22;4060;49.186;9.226;2024-03-23T09:21:31;15.00;56.50
7254;DHT22;4060;49.186;9.226;2024-03-23T09:23:59;15.00;56.60
7254;DHT22;4060;49.186;9.226;2024-03-23T09:26:28;15.00;56.70
7254;DHT22;4060;49.186;9.226;2024-03-23T09:28:57;15.10;56.80
7254;DHT22;4060;49.186;9.226;2024-03-23T09:31:27;15.10;56.90
7254;DHT22;4060;49.186;9.226;2024-03-23T09:33:59;15.10;56.80
7254;DHT22;4060;49.186;9.226;2024-03-23T09:36:29;15.10;56.90
7254;DHT22;4060;49.186;9.226;2024-03-23T09:38:57;15.10;56.90
7254;DHT22;4060;49.186;9.226;2024-03-23T09:41:28;15.10;57.40
7254;DHT22;4060;49.186;9.226;2024-03-23T09:43:55;15.10;56.90
7254;DHT22;4060;49.186;9.226;2024-03-23T09:46:25;15.10;56.90
7254;DHT22;4060;49.186;9.226;2024-03-23T09:48:58;15.20;56.90
7254;DHT22;4060;49.186;9.226;2024-03-23T09:51:28;15.20;56.90
7254;DHT22;4060;49.186;9.226;2024-03-23T09:53:56;15.30;56.80
7254;DHT22;4060;49.186;9.226;2024-03-23T09:56:28;15.30;56.70
7254;DHT22;4060;49.186;9.226;2024-03-23T09:59:02;15.30;56.50
7254;DHT22;4060;49.186;9.226;2024-03-23T10:01:32;15.30;56.40
7254;DHT22;4060;49.186;9.226;2024-03-23T10:04:03;15.30;56.20
7254;DHT22;4060;49.186;9.226;2024-03-23T10:06:34;15.30;56.00
7254;DHT22;4060;49.186;9.226;2024-03-23T10:09:18;15.30;55.90
7254;DHT22;4060;49.186;9.226;2024-03-23T10:11:48;15.30;55.70
7254;DHT22;4060;49.186;9.226;2024-03-23T10:14:30;15.30;55.60
7254;DHT22;4060;49.186;9.226;2024-03-23T10:17:13;15.30;55.50
7254;DHT22;4060;49.186;9.226;2024-03-23T10:19:44;15.30;55.40
7254;DHT22;4060;49.186;9.226;2024-03-23T10:22:16;15.30;55.30
7254;DHT22;4060;49.186;9.226;2024-03-23T10:24:47;15.30;55.20
7254;DHT22;4060;49.186;9.226;2024-03-23T10:27:17;15.30;55.10
7254;DHT22;4060;49.186;9.226;2024-03-23T10:29:46;15.30;55.00
7254;DHT22;4060;49.186;9.226;2024-03-23T10:32:17;15.30;54.90
7254;DHT22;4060;49.186;9.226;2024-03-23T10:34:53;15.30;54.90
7254;DHT22;4060;49.186;9.226;2024-03-23T10:37:24;15.30;54.80
7254;DHT22;4060;49.186;9.226;2024-03-23T10:39:53;15.30;54.70
7254;DHT22;4060;49.186;9.226;2024-03-23T10:42:23;15.30;54.80
7254;DHT22;4060;49.186;9.226;2024-03-23T10:44:52;15.30;54.70
7254;DHT22;4060;49.186;9.226;2024-03-23T10:47:23;15.30;54.70
7254;DHT22;4060;49.186;9.226;2024-03-23T10:49:54;15.30;54.70
7254;DHT22;4060;49.186;9.226;2024-03-23T10:52:24;15.30;54.90
7254;DHT22;4060;49.186;9.226;2024-03-23T10:54:53;15.20;54.80
7254;DHT22;4060;49.186;9.226;2024-03-23T10:57:30;15.20;54.90
7254;DHT22;4060;49.186;9.226;2024-03-23T11:00:04;15.20;54.80
7254;DHT22;4060;49.186;9.226;2024-03-23T11:02:34;15.20;55.30
7254;DHT22;4060;49.186;9.226;2024-03-23T11:05:31;15.20;54.70
7254;DHT22;4060;49.186;9.226;2024-03-23T11:08:01;15.20;54.80
7254;DHT22;4060;49.186;9.226;2024-03-23T11:10:30;15.20;54.80
7254;DHT22;4060;49.186;9.226;2024-03-23T11:13:23;15.20;54.70
7254;DHT22;4060;49.186;9.226;2024-03-23T11:15:51;15.20;54.70
7254;DHT22;4060;49.186;9.226;2024-03-23T11:18:23;15.20;54.80
7254;DHT22;4060;49.186;9.226;2024-03-23T11:20:54;15.20;54.70
7254;DHT22;4060;49.186;9.226;2024-03-23T11:23:28;15.20;54.70
7254;DHT22;4060;49.186;9.226;2024-03-23T11:25:57;15.20;54.50
7254;DHT22;4060;49.186;9.226;2024-03-23T11:28:27;15.20;54.40
7254;DHT22;4060;49.186;9.226;2024-03-23T11:30:55;15.20;54.30
7254;DHT22;4060;49.186;9.226;2024-03-23T11:33:24;15.20;54.20
7254;DHT22;4060;49.186;9.226;2024-03-23T11:35:54;15.20;54.10
7254;DHT22;4060;49.186;9.226;2024-03-23T11:38:24;15.20;54.00
7254;DHT22;4060;49.186;9.226;2024-03-23T11:40:52;15.20;53.90
7254;DHT22;4060;49.186;9.226;2024-03-23T11:43:23;15.20;53.90
7254;DHT22;4060;49.186;9.226;2024-03-23T11:45:53;15.20;53.70
7254;DHT22;4060;49.186;9.226;2024-03-23T11:48:24;15.20;53.70
7254;DHT22;4060;49.186;9.226;2024-03-23T11:50:59;15.20;53.50
7254;DHT22;4060;49.186;9.226;2024-03-23T11:53:29;15.20;53.40
7254;DHT22;4060;49.186;9.226;2024-03-23T11:55:59;15.30;53.40
7254;DHT22;4060;49.186;9.226;2024-03-23T11:58:29;15.30;53.20
7254;DHT22;4060;49.186;9.226;2024-03-23T12:00:58;15.30;53.00
7254;DHT22;4060;49.186;9.226;2024-03-23T12:03:30;15.30;53.00
7254;DHT22;4060;49.186;9.226;2024-03-23T12:06:01;15.30;52.90
7254;DHT22;4060;49.186;9.226;2024-03-23T12:08:31;15.30;52.70
7254;DHT22;4060;49.186;9.226;2024-03-23T12:11:07;15.30;52.70
7254;DHT22;4060;49.186;9.226;2024-03-23T12:13:39;15.40;52.70
7254;DHT22;4060;49.186;9.226;2024-03-23T12:16:13;15.40;52.60
7254;DHT22;4060;49.186;9.226;2024-03-23T12:18:43;15.40;52.50
7254;DHT22;4060;49.186;9.226;2024-03-23T12:21:14;15.40;52.30
7254;DHT22;4060;49.186;9.226;2024-03-23T12:23:44;15.40;52.20
7254;DHT22;4060;49.186;9.226;2024-03-23T12:26:14;15.40;52.10
7254;DHT22;4060;49.186;9.226;2024-03-23T12:28:45;15.40;51.80
7254;DHT22;4060;49.186;9.226;2024-03-23T12:31:15;15.50;51.80
7254;DHT22;4060;49.186;9.226;2024-03-23T12:33:45;15.50;51.70
7254;DHT22;4060;49.186;9.226;2024-03-23T12:36:16;15.50;51.50
7254;DHT22;4060;49.186;9.226;2024-03-23T12:38:46;15.50;51.40
7254;DHT22;4060;49.186;9.226;2024-03-23T12:41:15;15.60;51.40
7254;DHT22;4060;49.186;9.226;2024-03-23T12:43:45;15.60;51.20
7254;DHT22;4060;49.186;9.226;2024-03-23T12:46:13;15.60;51.00
7254;DHT22;4060;49.186;9.226;2024-03-23T12:48:45;15.60;50.90
7254;DHT22;4060;49.186;9.226;2024-03-23T12:51:16;15.60;50.80
7254;DHT22;4060;49.186;9.226;2024-03-23T12:53:45;15.60;50.60
7254;DHT22;4060;49.186;9.226;2024-03-23T12:56:14;15.60;50.40
7254;DHT22;4060;49.186;9.226;2024-03-23T12:58:45;15.70;50.30
7254;DHT22;4060;49.186;9.226;2024-03-23T13:01:15;15.70;50.00
7254;DHT22;4060;49.186;9.226;2024-03-23T13:03:47;15.70;49.90
7254;DHT22;4060;49.186;9.226;2024-03-23T13:06:19;15.70;49.90
7254;DHT22;4060;49.186;9.226;2024-03-23T13:08:48;15.70;49.70
7254;DHT22;4060;49.186;9.226;2024-03-23T13:11:18;15.80;49.70
7254;DHT22;4060;49.186;9.226;2024-03-23T13:13:48;15.70;49.50
7254;DHT22;4060;49.186;9.226;2024-03-23T13:16:17;15.80;49.50
7254;DHT22;4060;49.186;9.226;2024-03-23T13:18:47;15.80;49.60
7254;DHT22;4060;49.186;9.226;2024-03-23T13:21:17;15.80;49.70
7254;DHT22;4060;49.186;9.226;2024-03-23T13:23:51;15.80;49.70
7254;DHT22;4060;49.186;9.226;2024-03-23T13:26:19;15.80;49.70
7254;DHT22;4060;49.186;9.226;2024-03-23T13:28:50;15.90;49.90
7254;DHT22;4060;49.186;9.226;2024-03-23T13:31:19;15.90;50.00
7254;DHT22;4060;49.186;9.226;2024-03-23T13:33:51;15.90;50.00
7254;DHT22;4060;49.186;9.226;2024-03-23T13:36:22;15.90;50.30
7254;DHT22;4060;49.186;9.226;2024-03-23T13:38:54;15.90;50.50
7254;DHT22;4060;49.186;9.226;2024-03-23T13:41:25;15.90;50.60
7254;DHT22;4060;49.186;9.226;2024-03-23T13:43:53;15.90;50.90
7254;DHT22;4060;49.186;9.226;2024-03-23T13:46:24;15.80;51.10
7254;DHT22;4060;49.186;9.226;2024-03-23T13:48:53;15.90;51.50
7254;DHT22;4060;49.186;9.226;2024-03-23T13:51:27;15.90;51.70
7254;DHT22;4060;49.186;9.226;2024-03-23T13:53:56;15.80;51.80
7254;DHT22;4060;49.186;9.226;2024-03-23T13:56:28;15.90;52.00
7254;DHT22;4060;49.186;9.226;2024-03-23T13:58:57;15.90;52.20
7254;DHT22;4060;49.186;9.226;2024-03-23T14:01:28;15.90;52.60
7254;DHT22;4060;49.186;9.226;2024-03-23T14:03:58;15.90;52.90
7254;DHT22;4060;49.186;9.226;2024-03-23T14:06:31;15.90;53.10
7254;DHT22;4060;49.186;9.226;2024-03-23T14:09:00;15.80;53.20
7254;DHT22;4060;49.186;9.226;2024-03-23T14:11:31;15.80;53.40
7254;DHT22;4060;49.186;9.226;2024-03-23T14:14:02;15.80;53.50
7254;DHT22;4060;49.186;9.226;2024-03-23T14:16:32;15.80;53.50
7254;DHT22;4060;49.186;9.226;2024-03-23T14:19:04;15.80;53.60
7254;DHT22;4060;49.186;9.226;2024-03-23T14:21:39;15.80;53.70
7254;DHT22;4060;49.186;9.226;2024-03-23T14:24:12;15.80;53.90
7254;DHT22;4060;49.186;9.226;2024-03-23T14:26:40;15.80;53.90
7254;DHT22;4060;49.186;9.226;2024-03-23T14:29:11;15.80;54.00
7254;DHT22;4060;49.186;9.226;2024-03-23T14:31:42;15.80;54.00
7254;DHT22;4060;49.186;9.226;2024-03-23T14:34:13;15.80;54.10
7254;DHT22;4060;49.186;9.226;2024-03-23T14:36:46;15.70;54.10
7254;DHT22;4060;49.186;9.226;2024-03-23T14:39:16;15.80;54.30
7254;DHT22;4060;49.186;9.226;2024-03-23T14:41:48;15.80;54.40
7254;DHT22;4060;49.186;9.226;2024-03-23T14:44:22;15.70;54.40
7254;DHT22;4060;49.186;9.226;2024-03-23T14:46:53;15.70;54.50
7254;DHT22;4060;49.186;9.226;2024-03-23T14:49:25;15.70;54.50
7254;DHT22;4060;49.186;9.226;2024-03-23T14:51:56;15.70;54.50
7254;DHT22;4060;49.186;9.226;2024-03-23T14:54:28;15.70;54.60
7254;DHT22;4060;49.186;9.226;2024-03-23T14:56:58;15.70;54.60
7254;DHT22;4060;49.186;9.226;2024-03-23T14:59:29;15.70;54.70
7254;DHT22;4060;49.186;9.226;2024-03-23T15:01:58;15.70;54.70
7254;DHT22;4060;49.186;9.226;2024-03-23T15:04:32;15.70;54.70
7254;DHT22;4060;49.186;9.226;2024-03-23T15:07:06;15.70;54.70
7254;DHT22;4060;49.186;9.226;2024-03-23T15:09:38;15.70;54.80
7254;DHT22;4060;49.186;9.226;2024-03-23T15:12:07;15.70;54.70
7254;DHT22;4060;49.186;9.226;2024-03-23T15:14:46;15.70;54.80
7254;DHT22;4060;49.186;9.226;2024-03-23T15:17:15;15.70;54.70
7254;DHT22;4060;49.186;9.226;2024-03-23T15:19:46;15.70;54.70
7254;DHT22;4060;49.186;9.226;2024-03-23T15:22:19;15.70;54.70
7254;DHT22;4060;49.186;9.226;2024-03-23T15:24:52;15.60;54.40
7254;DHT22;4060;49.186;9.226;2024-03-23T15:27:22;15.60;54.50
7254;DHT22;4060;49.186;9.226;2024-03-23T15:29:53;15.60;54.50
7254;DHT22;4060;49.186;9.226;2024-03-23T15:32:26;15.60;54.50
7254;DHT22;4060;49.186;9.226;2024-03-23T15:34:59;15.60;54.50
7254;DHT22;4060;49.186;9.226;2024-03-23T15:37:32;15.60;54.40
7254;DHT22;4060;49.186;9.226;2024-03-23T15:40:08;15.60;54.40
7254;DHT22;4060;49.186;9.226;2024-03-23T15:42:39;15.60;54.80
7254;DHT22;4060;49.186;9.226;2024-03-23T15:45:11;15.60;54.20
7254;DHT22;4060;49.186;9.226;2024-03-23T15:47:40;15.60;54.20
7254;DHT22;4060;49.186;9.226;2024-03-23T15:50:12;15.60;54.20
7254;DHT22;4060;49.186;9.226;2024-03-23T15:52:46;15.50;54.10
7254;DHT22;4060;49.186;9.226;2024-03-23T15:55:18;15.60;54.10
7254;DHT22;4060;49.186;9.226;2024-03-23T15:57:48;15.50;54.00
7254;DHT22;4060;49.186;9.226;2024-03-23T16:00:20;15.50;53.90
7254;DHT22;4060;49.186;9.226;2024-03-23T16:02:49;15.50;53.80
7254;DHT22;4060;49.186;9.226;2024-03-23T16:05:20;15.50;53.70
7254;DHT22;4060;49.186;9.226;2024-03-23T16:07:53;15.40;52.80
7254;DHT22;4060;49.186;9.226;2024-03-23T16:10:23;15.30;51.50
7254;DHT22;4060;49.186;9.226;2024-03-23T16:12:54;15.10;50.50
7254;DHT22;4060;49.186;9.226;2024-03-23T16:15:23;14.80;50.20
7254;DHT22;4060;49.186;9.226;2024-03-23T16:17:55;14.70;50.80
7254;DHT22;4060;49.186;9.226;2024-03-23T16:20:25;14.60;51.30
7254;DHT22;4060;49.186;9.226;2024-03-23T16:23:04;14.60;51.70
7254;DHT22;4060;49.186;9.226;2024-03-23T16:25:33;14.60;51.70
7254;DHT22;4060;49.186;9.226;2024-03-23T16:28:07;14.60;51.90
7254;DHT22;4060;49.186;9.226;2024-03-23T16:30:37;14.60;51.90
7254;DHT22;4060;49.186;9.226;2024-03-23T16:33:11;14.70;52.00
7254;DHT22;4060;49.186;9.226;2024-03-23T16:35:41;14.70;52.00
7254;DHT22;4060;49.186;9.226;2024-03-23T16:38:15;14.70;51.90
7254;DHT22;4060;49.186;9.226;2024-03-23T16:40:56;14.80;52.00
7254;DHT22;4060;49.186;9.226;2024-03-23T16:43:29;14.80;52.00
7254;DHT22;4060;49.186;9.226;2024-03-23T16:46:00;14.80;52.00
7254;DHT22;4060;49.186;9.226;2024-03-23T16:48:33;14.90;52.10
7254;DHT22;4060;49.186;9.226;2024-03-23T16:51:03;14.90;52.00
7254;DHT22;4060;49.186;9.226;2024-03-23T16:53:37;14.80;51.80
7254;DHT22;4060;49.186;9.226;2024-03-23T16:56:07;14.60;50.80
7254;DHT22;4060;49.186;9.226;2024-03-23T16:58:39;14.40;50.90
7254;DHT22;4060;49.186;9.226;2024-03-23T17:01:08;14.10;51.20
7254;DHT22;4060;49.186;9.226;2024-03-23T17:03:47;13.90;51.40
7254;DHT22;4060;49.186;9.226;2024-03-23T17:06:16;13.80;51.70
7254;DHT22;4060;49.186;9.226;2024-03-23T17:08:51;13.70;51.70
7254;DHT22;4060;49.186;9.226;2024-03-23T17:11:20;13.60;51.60
7254;DHT22;4060;49.186;9.226;2024-03-23T17:13:51;13.50;51.50
7254;DHT22;4060;49.186;9.226;2024-03-23T17:16:21;13.30;51.50